createdAt,value
2019-02-10T00:01:17.897Z,5.61
2019-02-10T00:03:46.316Z,5.71
2019-02-10T00:06:24.547Z,5.74
2019-02-10T00:08:48.344Z,5.77
2019-02-10T00:11:17.047Z,5.84
2019-02-10T00:13:45.594Z,5.82
2019-02-10T00:16:16.412Z,5.71
2019-02-10T00:18:44.830Z,5.78
2019-02-10T00:21:13.424Z,5.77
2019-02-10T00:23:43.032Z,5.77
2019-02-10T00:26:11.489Z,5.79
2019-02-10T00:28:40.020Z,5.78
2019-02-10T00:31:08.790Z,5.84
2019-02-10T00:33:37.330Z,5.81
2019-02-10T00:36:05.858Z,5.77
2019-02-10T00:38:35.769Z,5.85
2019-02-10T00:41:06.986Z,5.92
2019-02-10T00:43:35.737Z,5.93
2019-02-10T00:46:04.267Z,5.81
2019-02-10T00:48:34.494Z,5.80
2019-02-10T00:51:02.842Z,5.84
2019-02-10T00:53:36.200Z,5.85
2019-02-10T00:56:04.699Z,5.84
2019-02-10T00:58:33.320Z,5.84
2019-02-10T01:01:02.295Z,5.90
2019-02-10T01:03:30.767Z,5.86
2019-02-10T01:05:59.624Z,5.90
2019-02-10T01:08:28.439Z,5.96
2019-02-10T01:10:57.018Z,5.88
2019-02-10T01:13:26.115Z,5.89
2019-02-10T01:15:56.283Z,5.86
2019-02-10T01:18:25.063Z,5.94
2019-02-10T01:20:53.713Z,5.99
2019-02-10T01:23:24.171Z,6.06
2019-02-10T01:25:52.760Z,6.08
2019-02-10T01:28:21.392Z,6.19
2019-02-10T01:30:50.023Z,6.19
2019-02-10T01:33:18.637Z,6.19
2019-02-10T01:35:47.931Z,6.17
2019-02-10T01:38:16.966Z,6.20
2019-02-10T01:40:45.325Z,6.26
2019-02-10T01:43:15.547Z,6.36
2019-02-10T01:45:45.759Z,6.39
2019-02-10T01:48:14.608Z,6.43
2019-02-10T01:50:43.546Z,6.45
2019-02-10T01:53:13.886Z,6.46
2019-02-10T01:55:42.494Z,6.48
2019-02-10T01:58:11.797Z,6.53
2019-02-10T02:00:40.362Z,6.54
2019-02-10T02:03:09.098Z,6.52
2019-02-10T02:05:37.655Z,6.58
2019-02-10T02:08:07.124Z,6.63
2019-02-10T02:10:37.418Z,6.61
2019-02-10T02:13:05.975Z,6.65
2019-02-10T02:15:35.345Z,6.66
2019-02-10T02:18:06.107Z,6.64
2019-02-10T02:20:35.657Z,6.71
2019-02-10T02:23:04.397Z,6.72
2019-02-10T02:25:36.347Z,6.72
2019-02-10T02:28:07.189Z,6.75
2019-02-10T02:30:35.582Z,6.77
2019-02-10T02:33:04.572Z,6.78
2019-02-10T02:35:34.552Z,6.85
2019-02-10T02:38:03.522Z,6.80
2019-02-10T02:40:33.392Z,6.86
2019-02-10T02:43:01.905Z,6.91
2019-02-10T02:45:30.530Z,6.95
2019-02-10T02:47:58.952Z,6.99
2019-02-10T02:50:29.200Z,6.97
2019-02-10T02:52:57.562Z,6.93
2019-02-10T02:55:27.281Z,6.99
2019-02-10T02:57:56.869Z,7.05
2019-02-10T03:00:25.737Z,7.01
2019-02-10T03:02:54.450Z,7.01
2019-02-10T03:05:23.045Z,7.00
2019-02-10T03:07:51.406Z,7.04
2019-02-10T03:10:19.850Z,6.96
2019-02-10T03:12:48.293Z,6.89
2019-02-10T03:15:16.750Z,6.94
2019-02-10T03:17:45.100Z,6.97
2019-02-10T03:20:13.553Z,6.92
2019-02-10T03:22:41.900Z,6.96
2019-02-10T03:25:10.353Z,6.96
2019-02-10T03:27:38.709Z,6.92
2019-02-10T03:30:11.538Z,6.82
2019-02-10T03:32:40.598Z,6.72
2019-02-10T03:35:10.595Z,6.81
2019-02-10T03:37:38.928Z,6.81
2019-02-10T03:40:09.526Z,6.89
2019-02-10T03:42:37.933Z,6.83
2019-02-10T03:45:09.662Z,6.89
2019-02-10T03:47:38.086Z,6.87
2019-02-10T03:50:08.230Z,6.92
2019-02-10T03:52:36.655Z,6.97
2019-02-10T03:55:06.832Z,6.92
2019-02-10T03:57:35.722Z,6.82
2019-02-10T04:00:07.284Z,6.85
2019-02-10T04:02:35.631Z,6.88
2019-02-10T04:05:04.359Z,6.85
2019-02-10T04:07:36.188Z,6.91
2019-02-10T04:10:03.354Z,6.95
2019-02-10T04:12:31.745Z,6.90
2019-02-10T04:15:00.292Z,6.86
2019-02-10T04:17:28.617Z,6.88
2019-02-10T04:19:57.763Z,6.93
2019-02-10T04:22:26.301Z,6.90
2019-02-10T04:24:54.719Z,6.94
2019-02-10T04:27:23.108Z,6.92
2019-02-10T04:29:51.463Z,6.95
2019-02-10T04:32:19.850Z,6.93
2019-02-10T04:34:48.213Z,6.97
2019-02-10T04:37:16.594Z,6.98
2019-02-10T04:39:44.947Z,6.98
2019-02-10T04:42:13.336Z,7.01
2019-02-10T04:44:41.693Z,7.01
2019-02-10T04:47:10.073Z,7.02
2019-02-10T04:49:38.426Z,7.02
2019-02-10T04:52:06.881Z,7.07
2019-02-10T04:54:35.222Z,7.06
2019-02-10T04:57:03.602Z,7.10
2019-02-10T04:59:31.946Z,7.05
2019-02-10T05:02:00.337Z,7.00
2019-02-10T05:04:29.133Z,7.06
2019-02-10T05:06:57.512Z,7.10
2019-02-10T05:09:25.933Z,7.13
2019-02-10T05:11:54.282Z,7.10
2019-02-10T05:14:22.815Z,7.09
2019-02-10T05:16:51.160Z,7.13
2019-02-10T05:19:19.757Z,7.17
2019-02-10T05:21:51.142Z,7.15
2019-02-10T05:24:19.968Z,7.17
2019-02-10T05:26:49.982Z,7.17
2019-02-10T05:29:18.755Z,7.16
2019-02-10T05:31:47.102Z,7.18
2019-02-10T05:34:16.839Z,7.20
2019-02-10T05:36:45.380Z,7.23
2019-02-10T05:39:13.856Z,7.20
2019-02-10T05:41:42.468Z,7.25
2019-02-10T05:44:10.854Z,7.23
2019-02-10T05:46:39.250Z,7.21
2019-02-10T05:49:07.709Z,7.21
2019-02-10T05:51:36.261Z,7.25
2019-02-10T05:54:04.936Z,7.31
2019-02-10T05:56:33.884Z,7.23
2019-02-10T05:59:04.310Z,7.28
2019-02-10T06:02:03.414Z,7.30
2019-02-10T06:04:34.842Z,7.33
2019-02-10T06:07:09.652Z,7.33
2019-02-10T06:09:38.043Z,7.33
2019-02-10T06:12:06.387Z,7.36
2019-02-10T06:14:34.772Z,7.35
2019-02-10T06:17:03.124Z,7.31
2019-02-10T06:19:31.586Z,7.34
2019-02-10T06:21:59.944Z,7.38
2019-02-10T06:24:28.332Z,7.36
2019-02-10T06:26:56.924Z,7.35
2019-02-10T06:29:25.397Z,7.43
2019-02-10T06:31:53.874Z,7.34
2019-02-10T06:34:22.267Z,7.37
2019-02-10T06:36:50.613Z,7.44
2019-02-10T06:39:19.135Z,7.43
2019-02-10T06:41:47.849Z,7.49
2019-02-10T06:44:16.423Z,7.51
2019-02-10T06:46:44.837Z,7.53
2019-02-10T06:49:13.240Z,7.59
2019-02-10T06:51:41.609Z,7.63
2019-02-10T06:54:10.324Z,7.66
2019-02-10T06:56:38.764Z,7.66
2019-02-10T06:59:08.903Z,7.65
2019-02-10T07:01:41.341Z,7.67
2019-02-10T07:04:12.710Z,7.65
2019-02-10T07:06:41.079Z,7.71
2019-02-10T07:09:09.453Z,7.69
2019-02-10T07:11:37.842Z,7.67
2019-02-10T07:14:08.313Z,7.69
2019-02-10T07:16:40.349Z,7.70
2019-02-10T07:19:45.389Z,7.71
2019-02-10T07:22:34.987Z,7.81
2019-02-10T07:25:18.682Z,7.72
2019-02-10T07:28:02.457Z,7.72
2019-02-10T07:30:49.274Z,7.71
2019-02-10T07:33:29.689Z,7.71
2019-02-10T07:36:04.033Z,7.72
2019-02-10T07:38:47.357Z,7.69
2019-02-10T07:41:21.664Z,7.69
2019-02-10T07:44:08.821Z,7.62
2019-02-10T07:47:00.711Z,7.66
2019-02-10T07:49:47.012Z,7.64
2019-02-10T07:52:18.637Z,7.70
2019-02-10T07:55:11.130Z,7.70
2019-02-10T07:57:42.755Z,7.71
2019-02-10T08:00:20.067Z,7.73
2019-02-10T08:03:19.089Z,7.75
2019-02-10T08:06:02.758Z,7.75
2019-02-10T08:08:53.503Z,7.80
2019-02-10T08:11:31.439Z,7.89
2019-02-10T08:14:17.877Z,7.86
2019-02-10T08:17:09.012Z,7.87
2019-02-10T08:19:43.435Z,7.94
2019-02-10T08:22:20.849Z,7.98
2019-02-10T08:24:55.540Z,8.07
2019-02-10T08:27:42.103Z,8.05
2019-02-10T08:30:29.898Z,8.14
2019-02-10T08:33:26.911Z,8.25
2019-02-10T08:36:29.095Z,8.29
2019-02-10T08:39:32.448Z,8.28
2019-02-10T08:42:18.939Z,8.27
2019-02-10T08:44:53.156Z,8.32
2019-02-10T08:47:41.465Z,8.36
2019-02-10T08:50:18.755Z,8.36
2019-02-10T08:52:52.984Z,8.40
2019-02-10T08:55:21.526Z,8.54
2019-02-10T08:57:49.903Z,8.53
2019-02-10T09:00:18.867Z,8.59
2019-02-10T09:02:47.376Z,8.63
2019-02-10T09:05:15.722Z,8.68
2019-02-10T09:07:44.094Z,8.70
2019-02-10T09:10:13.419Z,8.64
2019-02-10T09:12:41.798Z,8.65
2019-02-10T09:15:13.006Z,8.66
2019-02-10T09:17:41.403Z,8.61
2019-02-10T09:20:11.452Z,8.62
2019-02-10T09:22:39.929Z,8.59
2019-02-10T09:25:10.925Z,8.61
2019-02-10T09:27:39.269Z,8.58
2019-02-10T09:30:10.966Z,8.68
2019-02-10T09:32:39.518Z,8.62
2019-02-10T09:35:08.906Z,8.65
2019-02-10T09:37:37.326Z,8.68
2019-02-10T09:40:08.947Z,8.64
2019-02-10T09:42:37.308Z,8.66
2019-02-10T09:45:08.957Z,8.63
2019-02-10T09:47:37.387Z,8.70
2019-02-10T09:50:11.596Z,8.81
2019-02-10T09:52:40.030Z,8.81
2019-02-10T09:55:09.056Z,8.75
2019-02-10T09:57:37.476Z,8.79
2019-02-10T10:00:11.692Z,8.79
2019-02-10T10:02:40.543Z,8.83
2019-02-10T10:05:11.235Z,8.84
2019-02-10T10:07:39.669Z,8.97
2019-02-10T10:10:11.124Z,9.04
2019-02-10T10:12:39.478Z,9.09
2019-02-10T10:15:16.164Z,9.06
2019-02-10T10:17:44.516Z,9.13
2019-02-10T10:20:15.654Z,9.14
2019-02-10T10:22:44.073Z,9.19
2019-02-10T10:25:12.672Z,9.31
2019-02-10T10:27:41.098Z,9.42
2019-02-10T10:30:12.287Z,9.50
2019-02-10T10:32:40.639Z,9.38
2019-02-10T10:35:09.183Z,9.36
2019-02-10T10:37:37.606Z,9.27
2019-02-10T10:40:08.838Z,9.25
2019-02-10T10:42:37.257Z,9.17
2019-02-10T10:45:08.873Z,9.41
2019-02-10T10:47:37.893Z,9.18
2019-02-10T10:50:09.836Z,9.08
2019-02-10T10:52:38.252Z,9.06
2019-02-10T10:55:11.566Z,9.24
2019-02-10T10:57:39.927Z,9.21
2019-02-10T11:00:13.219Z,9.18
2019-02-10T11:02:41.758Z,9.35
2019-02-10T11:05:10.413Z,9.28
2019-02-10T11:07:38.844Z,9.14
2019-02-10T11:10:11.881Z,9.13
2019-02-10T11:12:40.349Z,9.36
2019-02-10T11:15:13.917Z,9.20
2019-02-10T11:17:42.507Z,9.19
2019-02-10T11:20:11.930Z,9.18
2019-02-10T11:22:40.291Z,9.19
2019-02-10T11:25:12.074Z,9.15
2019-02-10T11:27:40.434Z,9.09
2019-02-10T11:30:13.405Z,9.14
2019-02-10T11:32:44.952Z,9.17
2019-02-10T11:35:13.582Z,9.07
2019-02-10T11:37:42.143Z,9.09
2019-02-10T11:40:12.705Z,9.02
2019-02-10T11:42:41.118Z,9.01
2019-02-10T11:45:16.015Z,8.90
2019-02-10T11:47:44.433Z,8.82
2019-02-10T11:50:16.568Z,8.86
2019-02-10T11:52:44.914Z,8.95
2019-02-10T11:55:13.400Z,8.80
2019-02-10T11:57:41.886Z,8.69
2019-02-10T12:00:15.082Z,8.78
2019-02-10T12:02:43.481Z,8.80
2019-02-10T12:05:12.178Z,8.71
2019-02-10T12:07:40.840Z,8.76
2019-02-10T12:10:11.185Z,8.77
2019-02-10T12:12:39.579Z,8.77
2019-02-10T12:15:10.745Z,8.87
2019-02-10T12:17:39.309Z,8.85
2019-02-10T12:20:10.541Z,8.84
2019-02-10T12:22:39.010Z,8.67
2019-02-10T12:25:10.131Z,8.46
2019-02-10T12:27:38.620Z,8.39
2019-02-10T12:30:10.160Z,8.25
2019-02-10T12:32:38.545Z,8.21
2019-02-10T12:35:11.576Z,8.13
2019-02-10T12:37:40.207Z,8.13
2019-02-10T12:40:12.114Z,8.02
2019-02-10T12:42:40.593Z,7.92
2019-02-10T12:45:10.870Z,7.83
2019-02-10T12:47:39.377Z,7.77
2019-02-10T12:50:10.568Z,7.72
2019-02-10T12:52:39.046Z,7.62
2019-02-10T12:55:08.768Z,7.59
2019-02-10T12:57:37.217Z,7.61
2019-02-10T13:00:11.472Z,7.52
2019-02-10T13:02:39.924Z,7.60
2019-02-10T13:05:08.344Z,7.60
2019-02-10T13:07:36.735Z,7.77
2019-02-10T13:10:10.590Z,7.78
2019-02-10T13:12:39.097Z,7.75
2019-02-10T13:15:09.091Z,7.64
2019-02-10T13:17:37.497Z,7.56
2019-02-10T13:20:09.010Z,7.52
2019-02-10T13:22:37.394Z,7.38
2019-02-10T13:25:08.285Z,7.37
2019-02-10T13:27:36.726Z,7.25
2019-02-10T13:30:08.338Z,7.15
2019-02-10T13:32:36.736Z,7.09
2019-02-10T13:35:05.467Z,7.12
2019-02-10T13:37:33.853Z,6.92
2019-02-10T13:40:02.215Z,6.86
2019-02-10T13:42:30.568Z,6.80
2019-02-10T13:44:59.007Z,6.72
2019-02-10T13:47:27.381Z,6.57
2019-02-10T13:49:55.779Z,6.59
2019-02-10T13:52:24.160Z,6.61
2019-02-10T13:54:52.512Z,6.66
2019-02-10T13:57:20.899Z,6.69
2019-02-10T13:59:49.281Z,6.72
2019-02-10T14:02:17.616Z,6.79
2019-02-10T14:04:45.999Z,6.89
2019-02-10T14:07:14.352Z,6.91
2019-02-10T14:09:42.734Z,7.01
2019-02-10T14:12:11.094Z,7.11
2019-02-10T14:14:39.550Z,7.07
2019-02-10T14:17:07.967Z,7.10
2019-02-10T14:19:36.418Z,7.06
2019-02-10T14:22:04.779Z,7.14
2019-02-10T14:24:33.171Z,7.11
2019-02-10T14:27:01.521Z,7.29
2019-02-10T14:29:29.900Z,7.31
2019-02-10T14:31:58.261Z,7.32
2019-02-10T14:34:26.679Z,7.35
2019-02-10T14:36:55.024Z,7.31
2019-02-10T14:39:23.477Z,7.30
2019-02-10T14:41:51.838Z,7.33
2019-02-10T14:44:21.008Z,7.23
2019-02-10T14:46:49.704Z,7.18
2019-02-10T14:49:18.133Z,7.14
2019-02-10T14:51:46.546Z,6.98
2019-02-10T14:54:14.936Z,6.94
2019-02-10T14:56:43.281Z,6.90
2019-02-10T14:59:11.670Z,6.90
2019-02-10T15:01:40.016Z,7.00
2019-02-10T15:04:08.496Z,6.96
2019-02-10T15:06:36.929Z,6.99
2019-02-10T15:09:07.481Z,6.99
2019-02-10T15:11:36.019Z,6.98
2019-02-10T15:14:04.475Z,6.89
2019-02-10T15:16:34.120Z,6.85
2019-02-10T15:19:02.630Z,6.98
2019-02-10T15:21:30.998Z,6.85
2019-02-10T15:23:59.470Z,6.73
2019-02-10T15:26:28.046Z,6.70
2019-02-10T15:28:56.398Z,6.62
2019-02-10T15:31:24.781Z,6.62
2019-02-10T15:33:53.139Z,6.55
2019-02-10T15:36:21.662Z,6.77
2019-02-10T15:38:50.164Z,6.81
2019-02-10T15:41:18.576Z,6.87
2019-02-10T15:43:46.922Z,6.64
2019-02-10T15:46:15.591Z,6.65
2019-02-10T15:48:44.073Z,6.52
2019-02-10T15:51:12.512Z,6.48
2019-02-10T15:53:40.886Z,6.46
2019-02-10T15:56:09.244Z,6.44
2019-02-10T15:58:39.988Z,6.30
2019-02-10T16:01:08.445Z,6.31
2019-02-10T16:03:36.927Z,6.25
2019-02-10T16:06:05.420Z,6.24
2019-02-10T16:08:33.784Z,6.13
2019-02-10T16:11:02.169Z,5.95
2019-02-10T16:13:30.690Z,6.00
2019-02-10T16:15:59.091Z,6.00
2019-02-10T16:18:27.452Z,6.04
2019-02-10T16:20:55.891Z,6.05
2019-02-10T16:23:24.516Z,5.99
2019-02-10T16:25:52.992Z,5.97
2019-02-10T16:28:21.531Z,6.00
2019-02-10T16:30:49.977Z,5.87
2019-02-10T16:33:18.414Z,5.96
2019-02-10T16:35:47.045Z,5.84
2019-02-10T16:38:15.391Z,5.83
2019-02-10T16:40:44.003Z,5.74
2019-02-10T16:43:12.341Z,5.70
2019-02-10T16:45:40.740Z,5.73
2019-02-10T16:48:09.087Z,5.74
2019-02-10T16:50:37.683Z,5.80
2019-02-10T16:53:06.126Z,5.75
2019-02-10T16:55:34.529Z,5.76
2019-02-10T16:58:03.896Z,5.79
2019-02-10T17:00:32.357Z,5.82
2019-02-10T17:03:00.710Z,5.83
2019-02-10T17:05:29.288Z,5.86
2019-02-10T17:07:57.657Z,5.83
2019-02-10T17:10:26.212Z,5.82
2019-02-10T17:12:54.659Z,5.85
2019-02-10T17:15:23.068Z,5.72
2019-02-10T17:17:51.450Z,5.73
2019-02-10T17:20:20.055Z,5.82
2019-02-10T17:22:48.565Z,5.81
2019-02-10T17:25:27.729Z,5.73
2019-02-10T17:27:56.264Z,5.81
2019-02-10T17:30:24.939Z,5.87
2019-02-10T17:32:53.418Z,5.85
2019-02-10T17:35:21.896Z,5.78
2019-02-10T17:37:50.346Z,5.83
2019-02-10T17:40:36.919Z,5.86
2019-02-10T17:43:05.381Z,5.92
2019-02-10T17:45:33.818Z,5.81
2019-02-10T17:48:02.294Z,5.80
2019-02-10T17:50:30.638Z,5.66
2019-02-10T17:52:59.105Z,5.51
2019-02-10T17:55:27.466Z,5.43
2019-02-10T17:57:55.919Z,5.31
2019-02-10T18:00:28.668Z,4.93
2019-02-10T18:02:57.548Z,4.83
2019-02-10T18:05:25.921Z,4.70
2019-02-10T18:07:54.385Z,4.67
2019-02-10T18:10:22.799Z,4.77
2019-02-10T18:12:51.980Z,4.75
2019-02-10T18:15:28.003Z,4.92
2019-02-10T18:18:14.440Z,4.90
2019-02-10T18:20:45.320Z,4.84
2019-02-10T18:23:31.646Z,4.63
2019-02-10T18:26:01.705Z,4.56
2019-02-10T18:28:37.677Z,4.52
2019-02-10T18:31:13.260Z,4.56
2019-02-10T18:33:43.280Z,4.52
2019-02-10T18:36:16.242Z,4.58
2019-02-10T18:38:48.756Z,4.56
2019-02-10T18:41:38.962Z,4.56
2019-02-10T18:44:05.185Z,4.54
2019-02-10T18:46:35.300Z,4.50
2019-02-10T18:49:16.932Z,4.54
2019-02-10T18:52:02.732Z,4.60
2019-02-10T18:54:48.975Z,4.63
2019-02-10T18:57:21.832Z,4.61
2019-02-10T19:00:00.827Z,4.56
2019-02-10T19:02:34.916Z,4.55
2019-02-10T19:05:05.254Z,4.61
2019-02-10T19:07:38.230Z,4.66
2019-02-10T19:10:27.142Z,4.59
2019-02-10T19:13:13.897Z,4.57
2019-02-10T19:15:49.841Z,4.61
2019-02-10T19:18:22.933Z,4.50
2019-02-10T19:20:55.676Z,4.48
2019-02-10T19:23:37.549Z,4.48
2019-02-10T19:26:08.244Z,4.45
2019-02-10T19:28:44.901Z,4.44
2019-02-10T19:31:31.406Z,4.42
2019-02-10T19:34:01.501Z,4.47
2019-02-10T19:36:40.162Z,4.48
2019-02-10T19:39:25.513Z,4.42
2019-02-10T19:42:13.835Z,4.40
2019-02-10T19:45:00.154Z,4.44
2019-02-10T19:47:39.231Z,4.46
2019-02-10T19:50:09.397Z,4.41
2019-02-10T19:52:42.465Z,4.39
2019-02-10T19:55:12.644Z,4.37
2019-02-10T19:57:42.736Z,4.39
2019-02-10T20:00:19.435Z,4.38
2019-02-10T20:02:55.644Z,4.40
2019-02-10T20:05:25.668Z,4.35
2019-02-10T20:07:55.820Z,4.32
2019-02-10T20:10:34.857Z,4.55
2019-02-10T20:13:07.925Z,4.38
2019-02-10T20:15:37.947Z,4.38
2019-02-10T20:18:16.763Z,4.37
2019-02-10T20:20:49.532Z,4.39
2019-02-10T20:23:28.338Z,4.39
2019-02-10T20:26:10.234Z,4.38
2019-02-10T20:28:46.081Z,4.47
2019-02-10T20:31:21.924Z,4.97
2019-02-10T20:33:54.860Z,5.23
2019-02-10T20:36:33.609Z,4.51
2019-02-10T20:39:03.603Z,4.51
2019-02-10T20:41:33.637Z,4.48
2019-02-10T20:44:12.301Z,4.57
2019-02-10T20:46:45.252Z,4.80
2019-02-10T20:49:17.675Z,4.87
2019-02-10T20:51:53.434Z,4.62
2019-02-10T20:54:41.465Z,4.49
2019-02-10T20:57:13.965Z,4.51
2019-02-10T20:59:43.968Z,4.86
2019-02-10T21:02:16.764Z,6.31
2019-02-10T21:05:05.161Z,4.83
2019-02-10T21:07:47.164Z,4.55
2019-02-10T21:10:23.156Z,4.56
2019-02-10T21:12:54.084Z,4.63
2019-02-10T21:15:29.565Z,4.58
2019-02-10T21:18:01.798Z,4.56
2019-02-10T21:20:41.269Z,4.57
2019-02-10T21:23:12.904Z,4.60
2019-02-10T21:25:52.604Z,4.53
2019-02-10T21:28:27.492Z,4.57
2019-02-10T21:31:09.780Z,4.61
2019-02-10T21:33:58.301Z,4.54
2019-02-10T21:36:42.509Z,4.54
2019-02-10T21:39:30.342Z,4.46
2019-02-10T21:42:07.802Z,4.48
2019-02-10T21:44:40.548Z,4.43
2019-02-10T21:47:16.609Z,4.42
2019-02-10T21:49:47.819Z,4.54
2019-02-10T21:52:16.465Z,4.34
2019-02-10T21:54:45.180Z,4.36
2019-02-10T21:57:13.566Z,4.30
2019-02-10T21:59:43.698Z,4.29
2019-02-10T22:02:13.776Z,4.34
2019-02-10T22:04:42.818Z,4.37
2019-02-10T22:07:12.166Z,4.39
2019-02-10T22:09:42.471Z,4.44
2019-02-10T22:12:12.084Z,4.40
2019-02-10T22:14:40.761Z,4.49
2019-02-10T22:17:09.262Z,4.45
2019-02-10T22:19:37.793Z,4.49
2019-02-10T22:22:06.518Z,4.49
2019-02-10T22:24:34.883Z,4.50
2019-02-10T22:27:03.383Z,4.47
2019-02-10T22:29:32.082Z,4.48
2019-02-10T22:32:02.239Z,4.57
2019-02-10T22:34:30.956Z,4.52
2019-02-10T22:36:59.955Z,4.53
2019-02-10T22:39:28.948Z,4.40
2019-02-10T22:41:59.152Z,4.16
2019-02-10T22:44:27.530Z,4.13
2019-02-10T22:46:55.877Z,4.07
2019-02-10T22:49:24.674Z,4.10
2019-02-10T22:51:53.347Z,4.48
2019-02-10T22:54:22.352Z,4.56
2019-02-10T22:56:51.132Z,4.54
2019-02-10T22:59:20.667Z,4.36
2019-02-10T23:01:50.387Z,4.31
2019-02-10T23:04:19.753Z,3.98
2019-02-10T23:06:48.817Z,3.71
2019-02-10T23:09:20.387Z,3.49
2019-02-10T23:11:49.926Z,3.30
2019-02-10T23:14:18.886Z,3.57
2019-02-10T23:16:50.304Z,3.75
2019-02-10T23:19:19.930Z,3.78
2019-02-10T23:21:48.916Z,3.77
2019-02-10T23:24:17.905Z,3.82
2019-02-10T23:26:47.032Z,3.81
2019-02-10T23:29:15.422Z,3.85
2019-02-10T23:31:43.994Z,3.99
2019-02-10T23:34:12.369Z,4.04
2019-02-10T23:36:40.725Z,4.15
2019-02-10T23:39:09.103Z,4.23
2019-02-10T23:41:37.520Z,4.24
2019-02-10T23:44:05.875Z,4.29
2019-02-10T23:46:34.344Z,4.28
2019-02-10T23:49:02.713Z,4.22
2019-02-10T23:51:31.090Z,4.27
2019-02-10T23:53:59.520Z,4.32
2019-02-10T23:56:27.895Z,4.34
2019-02-10T23:58:56.311Z,4.29
